sensor_id;sensor_type;location;lat;lon;timestamp;temperature;humidity
65462;DHT22;53236;43.666;18.444;2023-08-08T00:01:18;12.10;99.90
65462;DHT22;53236;43.666;18.444;2023-08-08T00:03:44;12.10;99.90
65462;DHT22;53236;43.666;18.444;2023-08-08T00:06:10;12.10;99.90
65462;DHT22;53236;43.666;18.444;2023-08-08T00:08:36;12.10;99.90
65462;DHT22;53236;43.666;18.444;2023-08-08T00:11:02;12.10;99.90
65462;DHT22;53236;43.666;18.444;2023-08-08T00:13:27;12.10;99.90
65462;DHT22;53236;43.666;18.444;2023-08-08T00:15:53;12.20;99.90
65462;DHT22;53236;43.666;18.444;2023-08-08T00:18:19;12.20;99.90
65462;DHT22;53236;43.666;18.444;2023-08-08T00:20:45;12.20;99.90
65462;DHT22;53236;43.666;18.444;2023-08-08T00:23:10;12.20;99.90
65462;DHT22;53236;43.666;18.444;2023-08-08T00:25:36;12.20;99.90
65462;DHT22;53236;43.666;18.444;2023-08-08T00:28:03;12.10;99.90
65462;DHT22;53236;43.666;18.444;2023-08-08T00:30:28;11.90;99.90
65462;DHT22;53236;43.666;18.444;2023-08-08T00:32:54;11.90;99.90
65462;DHT22;53236;43.666;18.444;2023-08-08T00:35:20;12.00;99.90
65462;DHT22;53236;43.666;18.444;2023-08-08T00:37:46;11.90;99.90
65462;DHT22;53236;43.666;18.444;2023-08-08T00:40:11;11.80;99.90
65462;DHT22;53236;43.666;18.444;2023-08-08T00:42:37;11.90;99.90
65462;DHT22;53236;43.666;18.444;2023-08-08T00:45:03;11.80;99.90
65462;DHT22;53236;43.666;18.444;2023-08-08T00:47:32;11.80;99.90
65462;DHT22;53236;43.666;18.444;2023-08-08T00:50:00;11.70;99.90
65462;DHT22;53236;43.666;18.444;2023-08-08T00:52:28;11.70;99.90
65462;DHT22;53236;43.666;18.444;2023-08-08T00:54:54;11.80;99.90
65462;DHT22;53236;43.666;18.444;2023-08-08T00:57:20;11.80;99.90
65462;DHT22;53236;43.666;18.444;2023-08-08T00:59:46;11.70;99.90
65462;DHT22;53236;43.666;18.444;2023-08-08T01:02:12;11.60;99.90
65462;DHT22;53236;43.666;18.444;2023-08-08T01:04:38;11.70;99.90
65462;DHT22;53236;43.666;18.444;2023-08-08T01:07:14;11.50;99.90
65462;DHT22;53236;43.666;18.444;2023-08-08T01:10:06;11.50;99.90
65462;DHT22;53236;43.666;18.444;2023-08-08T01:12:44;11.50;99.90
65462;DHT22;53236;43.666;18.444;2023-08-08T01:15:11;11.60;99.90
65462;DHT22;53236;43.666;18.444;2023-08-08T01:17:39;11.60;99.90
65462;DHT22;53236;43.666;18.444;2023-08-08T01:20:05;11.70;99.90
65462;DHT22;53236;43.666;18.444;2023-08-08T01:22:58;11.80;99.90
65462;DHT22;53236;43.666;18.444;2023-08-08T01:25:29;11.80;99.90
65462;DHT22;53236;43.666;18.444;2023-08-08T01:27:55;11.90;99.90
65462;DHT22;53236;43.666;18.444;2023-08-08T01:30:21;11.90;99.90
65462;DHT22;53236;43.666;18.444;2023-08-08T01:32:46;12.00;99.90
65462;DHT22;53236;43.666;18.444;2023-08-08T01:35:13;12.00;99.90
65462;DHT22;53236;43.666;18.444;2023-08-08T01:37:49;12.00;99.90
65462;DHT22;53236;43.666;18.444;2023-08-08T01:40:18;12.00;99.90
65462;DHT22;53236;43.666;18.444;2023-08-08T01:42:46;12.00;99.90
65462;DHT22;53236;43.666;18.444;2023-08-08T01:45:14;12.00;99.90
65462;DHT22;53236;43.666;18.444;2023-08-08T01:47:40;11.90;99.90
65462;DHT22;53236;43.666;18.444;2023-08-08T01:50:07;11.90;99.90
65462;DHT22;53236;43.666;18.444;2023-08-08T01:52:34;11.80;99.90
65462;DHT22;53236;43.666;18.444;2023-08-08T01:55:00;11.80;99.90
65462;DHT22;53236;43.666;18.444;2023-08-08T01:57:26;11.80;99.90
65462;DHT22;53236;43.666;18.444;2023-08-08T01:59:52;11.80;99.90
65462;DHT22;53236;43.666;18.444;2023-08-08T02:02:18;11.80;99.90
65462;DHT22;53236;43.666;18.444;2023-08-08T02:04:44;11.70;99.90
65462;DHT22;53236;43.666;18.444;2023-08-08T02:07:10;11.70;99.90
65462;DHT22;53236;43.666;18.444;2023-08-08T02:09:35;11.70;99.90
65462;DHT22;53236;43.666;18.444;2023-08-08T02:12:01;11.70;99.90
65462;DHT22;53236;43.666;18.444;2023-08-08T02:14:27;11.70;99.90
65462;DHT22;53236;43.666;18.444;2023-08-08T02:16:53;11.70;99.90
65462;DHT22;53236;43.666;18.444;2023-08-08T02:19:18;11.70;99.90
65462;DHT22;53236;43.666;18.444;2023-08-08T02:21:44;11.70;99.90
65462;DHT22;53236;43.666;18.444;2023-08-08T02:24:10;11.70;99.90
65462;DHT22;53236;43.666;18.444;2023-08-08T02:26:36;11.70;99.90
65462;DHT22;53236;43.666;18.444;2023-08-08T02:29:01;11.70;99.90
65462;DHT22;53236;43.666;18.444;2023-08-08T02:31:27;11.70;99.90
65462;DHT22;53236;43.666;18.444;2023-08-08T02:33:53;11.80;99.90
65462;DHT22;53236;43.666;18.444;2023-08-08T02:36:20;11.70;99.90
65462;DHT22;53236;43.666;18.444;2023-08-08T02:38:46;11.70;99.90
65462;DHT22;53236;43.666;18.444;2023-08-08T02:41:11;11.70;99.90
65462;DHT22;53236;43.666;18.444;2023-08-08T02:43:37;11.70;99.90
65462;DHT22;53236;43.666;18.444;2023-08-08T02:46:03;11.60;99.90
65462;DHT22;53236;43.666;18.444;2023-08-08T02:48:30;11.60;99.90
65462;DHT22;53236;43.666;18.444;2023-08-08T02:50:56;11.70;99.90
65462;DHT22;53236;43.666;18.444;2023-08-08T02:53:22;11.70;99.90
65462;DHT22;53236;43.666;18.444;2023-08-08T02:55:48;11.70;99.90
65462;DHT22;53236;43.666;18.444;2023-08-08T02:58:13;11.60;99.90
65462;DHT22;53236;43.666;18.444;2023-08-08T03:00:39;11.70;99.90
65462;DHT22;53236;43.666;18.444;2023-08-08T03:03:05;11.70;99.90
65462;DHT22;53236;43.666;18.444;2023-08-08T03:05:31;11.70;99.90
65462;DHT22;53236;43.666;18.444;2023-08-08T03:07:56;11.70;99.90
65462;DHT22;53236;43.666;18.444;2023-08-08T03:10:22;11.70;99.90
65462;DHT22;53236;43.666;18.444;2023-08-08T03:12:48;11.60;99.90
65462;DHT22;53236;43.666;18.444;2023-08-08T03:15:14;11.50;99.90
65462;DHT22;53236;43.666;18.444;2023-08-08T03:17:39;11.40;99.90
65462;DHT22;53236;43.666;18.444;2023-08-08T03:20:06;11.20;99.90
65462;DHT22;53236;43.666;18.444;2023-08-08T03:22:32;11.10;99.90
65462;DHT22;53236;43.666;18.444;2023-08-08T03:24:58;11.00;99.90
65462;DHT22;53236;43.666;18.444;2023-08-08T03:27:24;11.00;99.90
65462;DHT22;53236;43.666;18.444;2023-08-08T03:29:51;10.90;99.90
65462;DHT22;53236;43.666;18.444;2023-08-08T03:32:16;10.80;99.90
65462;DHT22;53236;43.666;18.444;2023-08-08T03:34:42;10.80;99.90
65462;DHT22;53236;43.666;18.444;2023-08-08T03:37:08;10.80;99.90
65462;DHT22;53236;43.666;18.444;2023-08-08T03:39:34;10.80;99.90
65462;DHT22;53236;43.666;18.444;2023-08-08T03:41:59;10.80;99.90
65462;DHT22;53236;43.666;18.444;2023-08-08T03:44:25;10.90;99.90
65462;DHT22;53236;43.666;18.444;2023-08-08T03:46:51;10.90;99.90
65462;DHT22;53236;43.666;18.444;2023-08-08T03:49:17;10.90;99.90
65462;DHT22;53236;43.666;18.444;2023-08-08T03:51:42;10.90;99.90
65462;DHT22;53236;43.666;18.444;2023-08-08T03:54:08;10.90;99.90
65462;DHT22;53236;43.666;18.444;2023-08-08T03:56:34;11.00;99.90
65462;DHT22;53236;43.666;18.444;2023-08-08T03:59:00;11.10;99.90
65462;DHT22;53236;43.666;18.444;2023-08-08T04:01:26;11.10;99.90
65462;DHT22;53236;43.666;18.444;2023-08-08T04:03:51;11.10;99.90
65462;DHT22;53236;43.666;18.444;2023-08-08T04:06:17;11.10;99.90
65462;DHT22;53236;43.666;18.444;2023-08-08T04:08:43;11.00;99.90
65462;DHT22;53236;43.666;18.444;2023-08-08T04:11:08;11.00;99.90
65462;DHT22;53236;43.666;18.444;2023-08-08T04:13:34;10.90;99.90
65462;DHT22;53236;43.666;18.444;2023-08-08T04:16:00;10.90;99.90
65462;DHT22;53236;43.666;18.444;2023-08-08T04:18:26;10.90;99.90
65462;DHT22;53236;43.666;18.444;2023-08-08T04:20:52;11.00;99.90
65462;DHT22;53236;43.666;18.444;2023-08-08T04:23:18;11.00;99.90
65462;DHT22;53236;43.666;18.444;2023-08-08T04:25:44;11.10;99.90
65462;DHT22;53236;43.666;18.444;2023-08-08T04:28:10;11.10;99.90
65462;DHT22;53236;43.666;18.444;2023-08-08T04:30:36;11.10;99.90
65462;DHT22;53236;43.666;18.444;2023-08-08T04:33:02;11.10;99.90
65462;DHT22;53236;43.666;18.444;2023-08-08T04:35:27;11.00;99.90
65462;DHT22;53236;43.666;18.444;2023-08-08T04:37:53;11.10;99.90
65462;DHT22;53236;43.666;18.444;2023-08-08T04:40:19;11.20;99.90
65462;DHT22;53236;43.666;18.444;2023-08-08T04:42:44;11.30;99.90
65462;DHT22;53236;43.666;18.444;2023-08-08T04:45:10;11.40;99.90
65462;DHT22;53236;43.666;18.444;2023-08-08T04:47:36;11.50;99.90
65462;DHT22;53236;43.666;18.444;2023-08-08T04:50:02;11.60;99.90
65462;DHT22;53236;43.666;18.444;2023-08-08T04:52:28;11.70;99.90
65462;DHT22;53236;43.666;18.444;2023-08-08T04:54:53;11.80;99.90
65462;DHT22;53236;43.666;18.444;2023-08-08T04:57:19;11.70;99.90
65462;DHT22;53236;43.666;18.444;2023-08-08T04:59:45;11.60;99.90
65462;DHT22;53236;43.666;18.444;2023-08-08T05:02:10;11.80;99.90
65462;DHT22;53236;43.666;18.444;2023-08-08T05:04:36;11.80;99.90
65462;DHT22;53236;43.666;18.444;2023-08-08T05:07:02;11.80;99.90
65462;DHT22;53236;43.666;18.444;2023-08-08T05:09:28;11.70;99.90
65462;DHT22;53236;43.666;18.444;2023-08-08T05:11:54;11.80;99.90
65462;DHT22;53236;43.666;18.444;2023-08-08T05:14:19;11.90;99.90
65462;DHT22;53236;43.666;18.444;2023-08-08T05:16:45;11.80;99.90
65462;DHT22;53236;43.666;18.444;2023-08-08T05:19:12;12.00;99.90
65462;DHT22;53236;43.666;18.444;2023-08-08T05:21:37;12.00;99.90
65462;DHT22;53236;43.666;18.444;2023-08-08T05:24:03;12.00;99.90
65462;DHT22;53236;43.666;18.444;2023-08-08T05:26:29;11.90;99.90
65462;DHT22;53236;43.666;18.444;2023-08-08T05:28:55;11.90;99.90
65462;DHT22;53236;43.666;18.444;2023-08-08T05:31:20;11.90;99.90
65462;DHT22;53236;43.666;18.444;2023-08-08T05:33:48;12.10;99.90
65462;DHT22;53236;43.666;18.444;2023-08-08T05:36:14;12.40;99.90
65462;DHT22;53236;43.666;18.444;2023-08-08T05:38:40;13.00;99.90
65462;DHT22;53236;43.666;18.444;2023-08-08T05:41:07;13.70;99.90
65462;DHT22;53236;43.666;18.444;2023-08-08T05:43:33;14.30;99.90
65462;DHT22;53236;43.666;18.444;2023-08-08T05:45:59;14.80;99.90
65462;DHT22;53236;43.666;18.444;2023-08-08T05:48:25;15.00;99.90
65462;DHT22;53236;43.666;18.444;2023-08-08T05:50:51;15.50;99.90
65462;DHT22;53236;43.666;18.444;2023-08-08T05:53:16;15.60;99.90
65462;DHT22;53236;43.666;18.444;2023-08-08T05:55:42;15.90;99.90
65462;DHT22;53236;43.666;18.444;2023-08-08T05:58:08;15.80;99.90
65462;DHT22;53236;43.666;18.444;2023-08-08T06:00:34;15.90;99.90
65462;DHT22;53236;43.666;18.444;2023-08-08T06:03:00;15.90;99.90
65462;DHT22;53236;43.666;18.444;2023-08-08T06:05:26;16.70;99.90
65462;DHT22;53236;43.666;18.444;2023-08-08T06:07:52;17.20;97.90
65462;DHT22;53236;43.666;18.444;2023-08-08T06:10:18;17.20;95.30
65462;DHT22;53236;43.666;18.444;2023-08-08T06:12:43;17.80;96.30
65462;DHT22;53236;43.666;18.444;2023-08-08T06:15:09;17.70;90.90
65462;DHT22;53236;43.666;18.444;2023-08-08T06:17:35;17.30;90.70
65462;DHT22;53236;43.666;18.444;2023-08-08T06:20:01;17.20;93.40
65462;DHT22;53236;43.666;18.444;2023-08-08T06:22:26;17.20;92.70
65462;DHT22;53236;43.666;18.444;2023-08-08T06:24:52;17.30;91.80
65462;DHT22;53236;43.666;18.444;2023-08-08T06:27:18;17.70;90.40
65462;DHT22;53236;43.666;18.444;2023-08-08T06:29:44;18.70;83.90
65462;DHT22;53236;43.666;18.444;2023-08-08T06:32:09;19.40;82.60
65462;DHT22;53236;43.666;18.444;2023-08-08T06:34:35;21.10;75.90
65462;DHT22;53236;43.666;18.444;2023-08-08T06:37:01;22.70;68.20
65462;DHT22;53236;43.666;18.444;2023-08-08T06:39:27;23.80;62.80
65462;DHT22;53236;43.666;18.444;2023-08-08T06:41:52;23.50;59.50
65462;DHT22;53236;43.666;18.444;2023-08-08T06:44:19;22.90;63.40
65462;DHT22;53236;43.666;18.444;2023-08-08T06:46:44;22.60;63.40
65462;DHT22;53236;43.666;18.444;2023-08-08T06:49:10;22.40;63.20
65462;DHT22;53236;43.666;18.444;2023-08-08T06:51:36;22.30;64.60
65462;DHT22;53236;43.666;18.444;2023-08-08T06:54:02;23.30;63.40
65462;DHT22;53236;43.666;18.444;2023-08-08T06:56:28;23.10;60.80
65462;DHT22;53236;43.666;18.444;2023-08-08T06:58:54;24.80;61.50
65462;DHT22;53236;43.666;18.444;2023-08-08T07:01:20;26.40;55.50
65462;DHT22;53236;43.666;18.444;2023-08-08T07:03:46;26.20;57.20
65462;DHT22;53236;43.666;18.444;2023-08-08T07:06:12;26.60;54.60
65462;DHT22;53236;43.666;18.444;2023-08-08T07:08:38;28.40;52.40
65462;DHT22;53236;43.666;18.444;2023-08-08T07:11:05;29.70;52.70
65462;DHT22;53236;43.666;18.444;2023-08-08T07:13:34;31.30;48.40
65462;DHT22;53236;43.666;18.444;2023-08-08T07:16:00;31.90;47.80
65462;DHT22;53236;43.666;18.444;2023-08-08T07:18:25;31.80;49.60
65462;DHT22;53236;43.666;18.444;2023-08-08T07:20:51;31.80;47.00
65462;DHT22;53236;43.666;18.444;2023-08-08T07:23:17;28.50;51.30
65462;DHT22;53236;43.666;18.444;2023-08-08T07:25:43;28.90;52.20
65462;DHT22;53236;43.666;18.444;2023-08-08T07:28:09;28.50;51.60
65462;DHT22;53236;43.666;18.444;2023-08-08T07:30:35;28.60;52.10
65462;DHT22;53236;43.666;18.444;2023-08-08T07:33:01;27.90;50.90
65462;DHT22;53236;43.666;18.444;2023-08-08T07:35:27;28.90;52.70
65462;DHT22;53236;43.666;18.444;2023-08-08T07:37:52;28.40;51.00
65462;DHT22;53236;43.666;18.444;2023-08-08T07:40:20;27.40;52.50
65462;DHT22;53236;43.666;18.444;2023-08-08T07:42:49;26.70;54.20
65462;DHT22;53236;43.666;18.444;2023-08-08T07:45:15;25.90;54.40
65462;DHT22;53236;43.666;18.444;2023-08-08T07:47:41;25.10;56.80
65462;DHT22;53236;43.666;18.444;2023-08-08T07:50:08;26.70;56.10
65462;DHT22;53236;43.666;18.444;2023-08-08T07:52:35;28.10;52.80
65462;DHT22;53236;43.666;18.444;2023-08-08T07:55:01;29.00;52.50
65462;DHT22;53236;43.666;18.444;2023-08-08T07:57:27;29.00;50.60
65462;DHT22;53236;43.666;18.444;2023-08-08T07:59:53;26.90;53.10
65462;DHT22;53236;43.666;18.444;2023-08-08T08:02:19;25.50;56.20
65462;DHT22;53236;43.666;18.444;2023-08-08T08:04:44;25.00;57.40
65462;DHT22;53236;43.666;18.444;2023-08-08T08:07:10;23.70;60.00
65462;DHT22;53236;43.666;18.444;2023-08-08T08:09:36;23.00;61.90
65462;DHT22;53236;43.666;18.444;2023-08-08T08:12:01;22.70;63.60
65462;DHT22;53236;43.666;18.444;2023-08-08T08:14:27;22.60;63.80
65462;DHT22;53236;43.666;18.444;2023-08-08T08:16:53;23.80;60.70
65462;DHT22;53236;43.666;18.444;2023-08-08T08:19:19;25.40;58.00
65462;DHT22;53236;43.666;18.444;2023-08-08T08:21:45;26.40;55.70
65462;DHT22;53236;43.666;18.444;2023-08-08T08:24:11;26.40;52.60
65462;DHT22;53236;43.666;18.444;2023-08-08T08:26:37;27.10;50.50
65462;DHT22;53236;43.666;18.444;2023-08-08T08:29:02;25.90;50.40
65462;DHT22;53236;43.666;18.444;2023-08-08T08:31:28;27.00;50.70
65462;DHT22;53236;43.666;18.444;2023-08-08T08:33:54;29.10;48.30
65462;DHT22;53236;43.666;18.444;2023-08-08T08:36:21;32.00;42.80
65462;DHT22;53236;43.666;18.444;2023-08-08T08:38:47;34.30;42.10
65462;DHT22;53236;43.666;18.444;2023-08-08T08:41:17;35.50;39.90
65462;DHT22;53236;43.666;18.444;2023-08-08T08:43:43;35.40;39.40
65462;DHT22;53236;43.666;18.444;2023-08-08T08:46:11;32.30;40.30
65462;DHT22;53236;43.666;18.444;2023-08-08T08:48:37;29.90;41.50
65462;DHT22;53236;43.666;18.444;2023-08-08T08:51:03;28.80;44.50
65462;DHT22;53236;43.666;18.444;2023-08-08T08:53:29;28.50;45.30
65462;DHT22;53236;43.666;18.444;2023-08-08T08:55:56;27.70;45.40
65462;DHT22;53236;43.666;18.444;2023-08-08T08:58:24;25.60;46.50
65462;DHT22;53236;43.666;18.444;2023-08-08T09:00:51;24.50;48.90
65462;DHT22;53236;43.666;18.444;2023-08-08T09:03:17;24.00;52.40
65462;DHT22;53236;43.666;18.444;2023-08-08T09:05:45;23.70;54.20
65462;DHT22;53236;43.666;18.444;2023-08-08T09:08:11;23.70;54.40
65462;DHT22;53236;43.666;18.444;2023-08-08T09:10:41;23.60;52.10
65462;DHT22;53236;43.666;18.444;2023-08-08T09:13:06;23.90;53.50
65462;DHT22;53236;43.666;18.444;2023-08-08T09:15:33;24.90;55.10
65462;DHT22;53236;43.666;18.444;2023-08-08T09:18:00;25.20;52.60
65462;DHT22;53236;43.666;18.444;2023-08-08T09:20:26;25.10;54.50
65462;DHT22;53236;43.666;18.444;2023-08-08T09:22:56;24.50;51.10
65462;DHT22;53236;43.666;18.444;2023-08-08T09:25:24;24.00;50.90
65462;DHT22;53236;43.666;18.444;2023-08-08T09:27:53;23.10;48.90
65462;DHT22;53236;43.666;18.444;2023-08-08T09:30:19;22.50;49.80
65462;DHT22;53236;43.666;18.444;2023-08-08T09:32:45;22.50;52.20
65462;DHT22;53236;43.666;18.444;2023-08-08T09:35:11;22.30;55.40
65462;DHT22;53236;43.666;18.444;2023-08-08T09:37:38;22.00;52.90
65462;DHT22;53236;43.666;18.444;2023-08-08T09:40:05;21.10;54.90
65462;DHT22;53236;43.666;18.444;2023-08-08T09:42:33;20.80;55.10
65462;DHT22;53236;43.666;18.444;2023-08-08T09:45:01;21.60;55.70
65462;DHT22;53236;43.666;18.444;2023-08-08T09:47:27;21.80;54.10
65462;DHT22;53236;43.666;18.444;2023-08-08T09:50:00;21.70;53.90
65462;DHT22;53236;43.666;18.444;2023-08-08T09:52:27;21.60;55.20
65462;DHT22;53236;43.666;18.444;2023-08-08T09:54:54;22.00;57.30
65462;DHT22;53236;43.666;18.444;2023-08-08T09:57:21;22.00;55.00
65462;DHT22;53236;43.666;18.444;2023-08-08T09:59:47;21.90;50.90
65462;DHT22;53236;43.666;18.444;2023-08-08T10:02:16;22.10;51.30
65462;DHT22;53236;43.666;18.444;2023-08-08T10:04:43;21.90;57.90
65462;DHT22;53236;43.666;18.444;2023-08-08T10:07:09;21.70;57.50
65462;DHT22;53236;43.666;18.444;2023-08-08T10:09:35;21.70;55.70
65462;DHT22;53236;43.666;18.444;2023-08-08T10:12:04;21.30;56.80
65462;DHT22;53236;43.666;18.444;2023-08-08T10:14:36;20.90;55.80
65462;DHT22;53236;43.666;18.444;2023-08-08T10:17:07;20.80;58.40
65462;DHT22;53236;43.666;18.444;2023-08-08T10:19:33;21.20;56.60
65462;DHT22;53236;43.666;18.444;2023-08-08T10:22:05;20.80;59.50
65462;DHT22;53236;43.666;18.444;2023-08-08T10:24:38;21.30;59.10
65462;DHT22;53236;43.666;18.444;2023-08-08T10:27:04;22.00;55.80
65462;DHT22;53236;43.666;18.444;2023-08-08T10:29:32;22.40;52.80
65462;DHT22;53236;43.666;18.444;2023-08-08T10:32:06;22.60;53.20
65462;DHT22;53236;43.666;18.444;2023-08-08T10:34:40;22.20;55.70
65462;DHT22;53236;43.666;18.444;2023-08-08T10:37:10;22.20;56.20
65462;DHT22;53236;43.666;18.444;2023-08-08T10:39:36;22.60;53.60
65462;DHT22;53236;43.666;18.444;2023-08-08T10:42:05;22.90;52.90
65462;DHT22;53236;43.666;18.444;2023-08-08T10:44:31;23.00;54.50
65462;DHT22;53236;43.666;18.444;2023-08-08T10:46:57;23.00;56.50
65462;DHT22;53236;43.666;18.444;2023-08-08T10:49:25;22.90;54.30
65462;DHT22;53236;43.666;18.444;2023-08-08T10:51:51;22.00;57.30
65462;DHT22;53236;43.666;18.444;2023-08-08T10:54:24;21.80;58.60
65462;DHT22;53236;43.666;18.444;2023-08-08T10:56:57;21.30;61.10
65462;DHT22;53236;43.666;18.444;2023-08-08T10:59:36;21.50;63.20
65462;DHT22;53236;43.666;18.444;2023-08-08T11:02:02;21.70;62.40
65462;DHT22;53236;43.666;18.444;2023-08-08T11:04:29;21.40;60.70
65462;DHT22;53236;43.666;18.444;2023-08-08T11:06:56;21.00;60.30
65462;DHT22;53236;43.666;18.444;2023-08-08T11:09:22;21.00;59.70
65462;DHT22;53236;43.666;18.444;2023-08-08T11:11:49;21.00;60.60
65462;DHT22;53236;43.666;18.444;2023-08-08T11:14:22;20.50;62.70
65462;DHT22;53236;43.666;18.444;2023-08-08T11:16:50;21.10;62.40
65462;DHT22;53236;43.666;18.444;2023-08-08T11:19:16;21.30;60.20
65462;DHT22;53236;43.666;18.444;2023-08-08T11:21:45;21.50;59.80
65462;DHT22;53236;43.666;18.444;2023-08-08T11:24:12;21.70;56.80
65462;DHT22;53236;43.666;18.444;2023-08-08T11:26:40;21.90;55.60
65462;DHT22;53236;43.666;18.444;2023-08-08T11:29:07;22.00;55.90
65462;DHT22;53236;43.666;18.444;2023-08-08T11:31:34;22.00;54.60
65462;DHT22;53236;43.666;18.444;2023-08-08T11:34:00;22.40;56.10
65462;DHT22;53236;43.666;18.444;2023-08-08T11:36:29;22.40;56.30
65462;DHT22;53236;43.666;18.444;2023-08-08T11:38:57;22.60;57.20
65462;DHT22;53236;43.666;18.444;2023-08-08T11:41:23;22.60;58.00
65462;DHT22;53236;43.666;18.444;2023-08-08T11:43:53;23.00;56.50
65462;DHT22;53236;43.666;18.444;2023-08-08T11:46:22;23.50;53.90
65462;DHT22;53236;43.666;18.444;2023-08-08T11:48:50;23.10;55.20
65462;DHT22;53236;43.666;18.444;2023-08-08T11:51:16;22.80;53.30
65462;DHT22;53236;43.666;18.444;2023-08-08T11:53:53;22.90;54.10
65462;DHT22;53236;43.666;18.444;2023-08-08T11:56:20;22.50;53.50
65462;DHT22;53236;43.666;18.444;2023-08-08T11:58:50;22.40;51.70
65462;DHT22;53236;43.666;18.444;2023-08-08T12:01:21;22.20;53.80
65462;DHT22;53236;43.666;18.444;2023-08-08T12:03:47;21.90;55.00
65462;DHT22;53236;43.666;18.444;2023-08-08T12:06:16;22.10;55.90
65462;DHT22;53236;43.666;18.444;2023-08-08T12:08:44;22.10;55.40
65462;DHT22;53236;43.666;18.444;2023-08-08T12:11:11;22.10;55.30
65462;DHT22;53236;43.666;18.444;2023-08-08T12:13:38;22.30;54.40
65462;DHT22;53236;43.666;18.444;2023-08-08T12:16:06;22.60;57.60
65462;DHT22;53236;43.666;18.444;2023-08-08T12:18:35;22.90;55.70
65462;DHT22;53236;43.666;18.444;2023-08-08T12:21:01;23.00;53.90
65462;DHT22;53236;43.666;18.444;2023-08-08T12:23:27;22.70;55.30
65462;DHT22;53236;43.666;18.444;2023-08-08T12:25:53;22.40;52.80
65462;DHT22;53236;43.666;18.444;2023-08-08T12:28:19;21.70;56.70
65462;DHT22;53236;43.666;18.444;2023-08-08T12:30:45;21.30;57.80
65462;DHT22;53236;43.666;18.444;2023-08-08T12:33:11;21.00;57.40
65462;DHT22;53236;43.666;18.444;2023-08-08T12:35:37;21.00;55.20
65462;DHT22;53236;43.666;18.444;2023-08-08T12:38:02;21.10;58.50
65462;DHT22;53236;43.666;18.444;2023-08-08T12:40:29;21.00;58.10
65462;DHT22;53236;43.666;18.444;2023-08-08T12:42:55;21.10;57.20
65462;DHT22;53236;43.666;18.444;2023-08-08T12:45:21;21.20;56.10
65462;DHT22;53236;43.666;18.444;2023-08-08T12:47:47;21.30;56.90
65462;DHT22;53236;43.666;18.444;2023-08-08T12:50:12;21.30;58.10
65462;DHT22;53236;43.666;18.444;2023-08-08T12:52:38;21.40;58.40
65462;DHT22;53236;43.666;18.444;2023-08-08T12:55:05;21.50;60.40
65462;DHT22;53236;43.666;18.444;2023-08-08T12:57:31;21.70;58.60
65462;DHT22;53236;43.666;18.444;2023-08-08T12:59:57;22.00;60.70
65462;DHT22;53236;43.666;18.444;2023-08-08T13:02:23;22.10;59.20
65462;DHT22;53236;43.666;18.444;2023-08-08T13:04:48;22.30;55.90
65462;DHT22;53236;43.666;18.444;2023-08-08T13:07:14;22.20;56.70
65462;DHT22;53236;43.666;18.444;2023-08-08T13:09:40;21.90;53.80
65462;DHT22;53236;43.666;18.444;2023-08-08T13:12:06;21.80;55.80
65462;DHT22;53236;43.666;18.444;2023-08-08T13:14:32;21.60;53.50
65462;DHT22;53236;43.666;18.444;2023-08-08T13:16:58;21.70;56.40
65462;DHT22;53236;43.666;18.444;2023-08-08T13:19:24;21.40;56.40
65462;DHT22;53236;43.666;18.444;2023-08-08T13:21:54;21.40;57.80
65462;DHT22;53236;43.666;18.444;2023-08-08T13:24:20;21.00;57.50
65462;DHT22;53236;43.666;18.444;2023-08-08T13:26:48;20.90;56.40
65462;DHT22;53236;43.666;18.444;2023-08-08T13:29:14;21.00;56.90
65462;DHT22;53236;43.666;18.444;2023-08-08T13:31:40;21.00;57.10
65462;DHT22;53236;43.666;18.444;2023-08-08T13:34:06;20.80;56.90
65462;DHT22;53236;43.666;18.444;2023-08-08T13:36:31;20.70;57.20
65462;DHT22;53236;43.666;18.444;2023-08-08T13:38:57;20.80;56.90
65462;DHT22;53236;43.666;18.444;2023-08-08T13:41:24;21.00;59.30
65462;DHT22;53236;43.666;18.444;2023-08-08T13:43:50;20.80;59.40
65462;DHT22;53236;43.666;18.444;2023-08-08T13:46:15;20.60;59.00
65462;DHT22;53236;43.666;18.444;2023-08-08T13:48:41;20.30;61.80
65462;DHT22;53236;43.666;18.444;2023-08-08T13:51:07;20.50;61.60
65462;DHT22;53236;43.666;18.444;2023-08-08T13:53:33;20.40;59.30
65462;DHT22;53236;43.666;18.444;2023-08-08T13:55:59;20.30;60.10
65462;DHT22;53236;43.666;18.444;2023-08-08T13:58:25;20.20;61.40
65462;DHT22;53236;43.666;18.444;2023-08-08T14:00:51;20.20;59.70
65462;DHT22;53236;43.666;18.444;2023-08-08T14:03:18;20.30;61.60
65462;DHT22;53236;43.666;18.444;2023-08-08T14:05:44;20.30;62.20
65462;DHT22;53236;43.666;18.444;2023-08-08T14:08:10;20.50;62.30
65462;DHT22;53236;43.666;18.444;2023-08-08T14:10:36;20.70;62.00
65462;DHT22;53236;43.666;18.444;2023-08-08T14:13:02;20.50;60.80
65462;DHT22;53236;43.666;18.444;2023-08-08T14:15:28;20.60;60.00
65462;DHT22;53236;43.666;18.444;2023-08-08T14:17:54;21.00;60.60
65462;DHT22;53236;43.666;18.444;2023-08-08T14:20:20;21.30;59.00
65462;DHT22;53236;43.666;18.444;2023-08-08T14:22:46;21.30;56.60
65462;DHT22;53236;43.666;18.444;2023-08-08T14:25:13;21.40;56.30
65462;DHT22;53236;43.666;18.444;2023-08-08T14:27:39;21.80;56.50
65462;DHT22;53236;43.666;18.444;2023-08-08T14:30:05;21.90;57.50
65462;DHT22;53236;43.666;18.444;2023-08-08T14:32:31;22.10;55.60
65462;DHT22;53236;43.666;18.444;2023-08-08T14:34:57;22.30;57.20
65462;DHT22;53236;43.666;18.444;2023-08-08T14:37:23;22.40;54.80
65462;DHT22;53236;43.666;18.444;2023-08-08T14:39:49;22.30;55.40
65462;DHT22;53236;43.666;18.444;2023-08-08T14:42:15;22.40;54.40
65462;DHT22;53236;43.666;18.444;2023-08-08T14:44:40;22.50;55.40
65462;DHT22;53236;43.666;18.444;2023-08-08T14:47:06;22.70;55.50
65462;DHT22;53236;43.666;18.444;2023-08-08T14:49:32;22.70;55.40
65462;DHT22;53236;43.666;18.444;2023-08-08T14:51:58;22.80;54.00
65462;DHT22;53236;43.666;18.444;2023-08-08T14:54:24;22.70;55.70
65462;DHT22;53236;43.666;18.444;2023-08-08T14:56:49;22.70;56.60
65462;DHT22;53236;43.666;18.444;2023-08-08T14:59:16;22.70;57.30
65462;DHT22;53236;43.666;18.444;2023-08-08T15:01:42;22.60;55.50
65462;DHT22;53236;43.666;18.444;2023-08-08T15:04:08;22.30;53.30
65462;DHT22;53236;43.666;18.444;2023-08-08T15:06:36;21.90;54.30
65462;DHT22;53236;43.666;18.444;2023-08-08T15:09:02;21.30;56.40
65462;DHT22;53236;43.666;18.444;2023-08-08T15:11:28;20.90;57.60